Time;durP1;ratioP1;P1;durP2;ratioP2;P2;SDS_P1;SDS_P2;PMS_P1;PMS_P2;Temp;Humidity;BMP_temperature;BMP_pressure;BME280_temperature;BME280_humidity;BME280_pressure;Samples;Min_cycle;Max_cycle;Signal;HPM_P1;HPM_P2
2024/03/24 00:01:34;;;;;;;7.17;6.47;;;4.50;99.90;;;;;;5032207;28;20234;-75
2024/03/24 00:04:00;;;;;;;14.07;5.80;;;4.60;99.90;;;;;;5031358;28;20230;-76
2024/03/24 00:06:25;;;;;;;7.23;5.53;;;4.60;99.90;;;;;;5031501;28;20552;-74
2024/03/24 00:08:54;;;;;;;7.43;5.70;;;4.60;99.90;;;;;;5046680;28;20183;-73
2024/03/24 00:11:20;;;;;;;6.13;5.43;;;4.60;99.90;;;;;;5031360;28;20231;-74
2024/03/24 00:13:45;;;;;;;6.77;6.00;;;4.70;99.90;;;;;;5032020;28;20714;-75
2024/03/24 00:16:11;;;;;;;7.07;6.07;;;4.70;99.90;;;;;;5031373;28;20214;-72
2024/03/24 00:18:36;;;;;;;6.50;6.00;;;4.70;99.90;;;;;;5032421;28;20544;-74
2024/03/24 00:21:02;;;;;;;5.90;5.40;;;4.80;99.90;;;;;;5031421;28;20191;-74
2024/03/24 00:23:28;;;;;;;6.17;5.57;;;4.90;99.90;;;;;;5031922;28;20679;-73
2024/03/24 00:25:53;;;;;;;6.50;5.93;;;4.90;99.90;;;;;;5031335;28;20722;-74
2024/03/24 00:28:19;;;;;;;6.27;5.67;;;4.90;99.90;;;;;;5030883;28;20266;-72
2024/03/24 00:30:44;;;;;;;5.70;5.27;;;4.90;99.90;;;;;;5030963;28;20203;-73
2024/03/24 00:33:10;;;;;;;9.53;5.30;;;4.90;99.90;;;;;;5031120;28;20549;-73
2024/03/24 00:35:35;;;;;;;5.80;5.30;;;4.90;99.90;;;;;;5031008;28;20179;-72
2024/03/24 00:38:01;;;;;;;5.73;5.23;;;4.90;99.90;;;;;;5030874;28;20190;-72
2024/03/24 00:40:27;;;;;;;8.53;6.10;;;4.90;99.90;;;;;;5030740;28;20660;-73
2024/03/24 00:42:52;;;;;;;6.87;6.13;;;5.00;99.90;;;;;;5030110;28;20707;-73
2024/03/24 00:45:18;;;;;;;8.90;6.00;;;5.10;99.90;;;;;;5030211;28;20187;-72
2024/03/24 00:47:43;;;;;;;8.07;6.20;;;5.10;99.90;;;;;;5029822;28;20670;-73
2024/03/24 00:50:09;;;;;;;7.87;5.80;;;5.10;99.90;;;;;;5030758;28;20183;-73
2024/03/24 00:52:35;;;;;;;6.20;5.70;;;5.20;99.90;;;;;;5030970;28;20167;-72
2024/03/24 00:55:01;;;;;;;9.63;6.00;;;5.20;99.90;;;;;;5029405;28;20175;-72
2024/03/24 00:57:26;;;;;;;9.27;6.77;;;5.20;99.90;;;;;;5033338;28;20183;-73
2024/03/24 00:59:52;;;;;;;9.30;6.13;;;5.10;99.90;;;;;;5037640;28;20167;-73
2024/03/24 01:02:18;;;;;;;8.90;6.40;;;5.10;99.90;;;;;;5037070;28;20230;-73
2024/03/24 01:04:43;;;;;;;6.80;6.13;;;5.10;99.90;;;;;;5037319;28;20180;-72
2024/03/24 01:07:09;;;;;;;8.30;6.20;;;5.10;99.90;;;;;;5037426;28;20270;-73
2024/03/24 01:09:35;;;;;;;10.40;6.90;;;5.10;99.90;;;;;;5038782;28;20175;-72
2024/03/24 01:12:00;;;;;;;10.97;6.43;;;5.10;99.90;;;;;;5038747;28;20210;-72
2024/03/24 01:14:26;;;;;;;7.87;6.20;;;5.10;99.90;;;;;;5038667;28;20714;-70
2024/03/24 01:16:52;;;;;;;8.13;6.40;;;5.10;99.90;;;;;;5038396;28;20179;-71
2024/03/24 01:19:17;;;;;;;8.30;6.57;;;5.00;99.90;;;;;;5038091;28;20179;-71
2024/03/24 01:21:43;;;;;;;6.90;6.17;;;5.00;99.90;;;;;;5037631;28;20195;-73
2024/03/24 01:24:08;;;;;;;8.93;6.90;;;5.00;99.90;;;;;;5036644;28;20629;-71
2024/03/24 01:26:34;;;;;;;6.73;6.20;;;5.00;99.90;;;;;;5037087;28;20175;-70
2024/03/24 01:29:00;;;;;;;7.23;6.50;;;5.00;99.90;;;;;;5037361;28;20173;-70
2024/03/24 01:31:26;;;;;;;10.10;6.63;;;4.90;99.90;;;;;;5037111;28;20202;-71
2024/03/24 01:33:51;;;;;;;7.60;6.90;;;4.90;99.90;;;;;;5037184;28;20233;-72
2024/03/24 01:36:17;;;;;;;6.17;5.67;;;4.90;99.90;;;;;;5035318;28;20187;-73
2024/03/24 01:38:43;;;;;;;7.20;6.60;;;5.00;99.90;;;;;;5036938;28;20187;-71
2024/03/24 01:41:09;;;;;;;7.50;6.80;;;5.00;99.90;;;;;;5036833;28;20282;-72
2024/03/24 01:43:34;;;;;;;8.67;6.97;;;5.00;99.90;;;;;;5036983;28;20199;-71
2024/03/24 01:46:00;;;;;;;7.67;6.83;;;5.10;99.90;;;;;;5036974;28;20589;-72
2024/03/24 01:48:26;;;;;;;10.67;7.50;;;5.10;99.90;;;;;;5036830;28;20680;-72
2024/03/24 01:50:51;;;;;;;7.77;6.60;;;5.20;99.90;;;;;;5037086;28;20221;-71
2024/03/24 01:53:19;;;;;;;12.40;7.47;;;5.30;99.90;;;;;;5036600;28;20711;-70
2024/03/24 01:55:44;;;;;;;9.43;7.67;;;5.40;99.90;;;;;;5036809;28;20176;-71
2024/03/24 01:58:10;;;;;;;6.77;6.07;;;5.40;99.90;;;;;;5036727;28;20717;-74
2024/03/24 02:00:36;;;;;;;8.33;7.47;;;5.40;99.90;;;;;;5036918;28;20204;-72
2024/03/24 02:03:01;;;;;;;9.40;8.03;;;5.40;99.90;;;;;;5036557;28;20199;-70
2024/03/24 02:05:28;;;;;;;8.70;7.33;;;5.40;99.90;;;;;;5036234;28;20202;-71
2024/03/24 02:07:53;;;;;;;9.57;8.17;;;5.40;99.90;;;;;;5036879;28;20175;-72
2024/03/24 02:10:20;;;;;;;9.57;8.50;;;5.40;99.90;;;;;;5032340;28;20563;-70
2024/03/24 02:12:46;;;;;;;16.63;8.20;;;5.40;99.90;;;;;;5034338;28;20613;-72
2024/03/24 02:15:13;;;;;;;8.97;7.70;;;5.50;99.90;;;;;;5033605;28;20203;-73
2024/03/24 02:17:40;;;;;;;7.90;7.10;;;5.50;99.90;;;;;;5033882;28;20704;-72
2024/03/24 02:20:06;;;;;;;8.03;7.33;;;5.50;99.90;;;;;;5033757;28;20520;-71
2024/03/24 02:22:37;;;;;;;8.70;7.77;;;5.50;99.90;;;;;;5033704;28;20199;-72
2024/03/24 02:25:04;;;;;;;9.97;7.87;;;5.60;99.90;;;;;;5033402;28;20222;-73
2024/03/24 02:27:30;;;;;;;7.90;7.20;;;5.60;99.90;;;;;;5033379;28;20242;-72
2024/03/24 02:29:55;;;;;;;7.47;6.77;;;5.70;99.90;;;;;;5033280;28;20692;-72
2024/03/24 02:32:21;;;;;;;7.80;7.10;;;5.70;99.90;;;;;;5033127;28;20204;-73
2024/03/24 02:34:47;;;;;;;10.77;7.00;;;5.70;99.90;;;;;;5032918;28;20675;-73
2024/03/24 02:37:12;;;;;;;8.63;7.33;;;5.70;99.90;;;;;;5033206;28;20180;-73
2024/03/24 02:39:38;;;;;;;11.07;7.70;;;5.70;99.90;;;;;;5033354;28;20271;-72
2024/03/24 02:42:04;;;;;;;8.73;7.63;;;5.70;99.90;;;;;;5033179;28;20290;-73
2024/03/24 02:44:30;;;;;;;7.17;6.50;;;5.70;99.90;;;;;;5032986;28;20226;-72
2024/03/24 02:46:56;;;;;;;9.63;7.10;;;5.80;99.90;;;;;;5033046;28;20183;-73
2024/03/24 02:49:21;;;;;;;7.77;6.97;;;5.80;99.90;;;;;;5032728;28;20179;-73
2024/03/24 02:51:47;;;;;;;9.33;6.60;;;5.80;99.90;;;;;;5033338;28;20195;-73
2024/03/24 02:54:13;;;;;;;7.23;6.53;;;5.70;99.90;;;;;;5032786;28;20609;-72
2024/03/24 02:56:38;;;;;;;7.37;6.73;;;5.70;99.90;;;;;;5032876;28;20263;-72
2024/03/24 02:59:04;;;;;;;8.00;7.27;;;5.70;99.90;;;;;;5033178;28;20378;-72
2024/03/24 03:01:29;;;;;;;8.40;7.60;;;5.60;99.90;;;;;;5032433;28;20735;-72
2024/03/24 03:03:55;;;;;;;8.17;7.37;;;5.60;99.90;;;;;;5033054;28;20211;-73
2024/03/24 03:06:20;;;;;;;8.23;6.60;;;5.60;99.90;;;;;;5032361;28;20183;-72
2024/03/24 03:08:46;;;;;;;8.07;7.37;;;5.50;99.90;;;;;;5032665;28;20188;-73
2024/03/24 03:11:11;;;;;;;9.60;7.30;;;5.50;99.90;;;;;;5031184;28;20207;-72
2024/03/24 03:13:37;;;;;;;8.40;7.13;;;5.40;99.90;;;;;;5032842;28;20179;-73
2024/03/24 03:16:03;;;;;;;13.23;7.70;;;5.50;99.90;;;;;;5032502;28;20657;-74
2024/03/24 03:18:29;;;;;;;9.90;7.10;;;5.40;99.90;;;;;;5032791;28;20203;-75
2024/03/24 03:20:54;;;;;;;7.23;6.53;;;5.40;99.90;;;;;;5032954;28;20195;-75
2024/03/24 03:23:21;;;;;;;10.23;7.00;;;5.30;99.90;;;;;;5032021;28;20562;-73
2024/03/24 03:25:47;;;;;;;7.47;6.70;;;5.20;99.90;;;;;;5032464;28;20176;-74
2024/03/24 03:28:13;;;;;;;7.10;6.40;;;5.10;99.90;;;;;;5032470;28;20187;-75
2024/03/24 03:30:39;;;;;;;8.20;6.93;;;5.00;99.90;;;;;;5032768;28;20195;-75
2024/03/24 03:33:05;;;;;;;9.47;7.17;;;4.90;99.90;;;;;;5032905;28;20194;-75
2024/03/24 03:35:31;;;;;;;10.67;7.13;;;4.90;99.90;;;;;;5032295;28;20183;-75
2024/03/24 03:37:56;;;;;;;5.97;5.57;;;4.80;99.90;;;;;;5032726;28;20254;-75
2024/03/24 03:40:22;;;;;;;7.40;6.20;;;4.80;99.90;;;;;;5047664;28;20299;-75
2024/03/24 03:42:47;;;;;;;6.67;5.90;;;4.70;99.90;;;;;;5032479;28;20208;-73
2024/03/24 03:45:15;;;;;;;8.60;6.70;;;4.70;99.90;;;;;;5032651;28;20179;-76
2024/03/24 03:47:40;;;;;;;8.60;7.70;;;4.60;99.90;;;;;;5032684;28;20534;-75
2024/03/24 03:50:13;;;;;;;8.93;7.90;;;4.70;99.90;;;;;;5032296;28;20182;-74
2024/03/24 03:52:39;;;;;;;9.47;7.47;;;4.70;99.90;;;;;;5032176;28;20172;-73
2024/03/24 03:55:11;;;;;;;8.00;7.17;;;4.70;99.90;;;;;;5031887;28;20182;-75
2024/03/24 03:57:37;;;;;;;8.90;8.00;;;4.80;99.90;;;;;;5024403;28;20179;-76
2024/03/24 04:00:10;;;;;;;7.90;7.13;;;4.80;99.90;;;;;;5032319;28;20246;-73
2024/03/24 04:02:40;;;;;;;6.30;5.80;;;4.80;99.90;;;;;;5031874;28;20186;-74
2024/03/24 04:05:12;;;;;;;6.67;6.10;;;4.70;99.90;;;;;;5032375;28;20186;-74
2024/03/24 04:07:39;;;;;;;8.47;6.47;;;4.70;99.90;;;;;;5032135;28;20207;-75
2024/03/24 04:10:06;;;;;;;7.63;6.70;;;4.70;99.90;;;;;;5032125;28;20172;-75
2024/03/24 04:12:32;;;;;;;7.57;6.80;;;4.70;99.90;;;;;;5031689;28;20207;-73
2024/03/24 04:15:02;;;;;;;7.17;6.50;;;4.70;99.90;;;;;;5031861;28;20191;-74
2024/03/24 04:17:28;;;;;;;7.50;6.77;;;4.70;99.90;;;;;;5031363;28;20183;-73
2024/03/24 04:19:55;;;;;;;7.43;6.80;;;4.70;99.90;;;;;;5032118;28;20202;-72
2024/03/24 04:22:21;;;;;;;8.00;7.17;;;4.80;99.90;;;;;;5031305;28;20195;-74
2024/03/24 04:24:48;;;;;;;9.20;7.50;;;4.80;99.90;;;;;;5031784;28;20332;-74
2024/03/24 04:27:14;;;;;;;7.17;6.47;;;4.80;99.90;;;;;;5031646;28;20258;-74
2024/03/24 04:29:40;;;;;;;8.43;6.60;;;4.80;99.90;;;;;;5031764;28;20294;-73
2024/03/24 04:32:06;;;;;;;8.00;7.20;;;4.80;99.90;;;;;;5031379;28;20210;-73
2024/03/24 04:34:32;;;;;;;9.60;7.67;;;4.70;99.90;;;;;;5031317;28;20179;-75
2024/03/24 04:36:58;;;;;;;9.60;7.13;;;4.80;99.90;;;;;;5031300;28;20179;-75
2024/03/24 04:39:24;;;;;;;14.03;7.33;;;4.80;99.90;;;;;;5031440;28;20176;-73
2024/03/24 04:41:49;;;;;;;12.00;7.83;;;4.80;99.90;;;;;;5031663;28;20198;-73
2024/03/24 04:44:15;;;;;;;9.50;8.30;;;4.80;99.90;;;;;;5031284;28;20203;-73
2024/03/24 04:46:41;;;;;;;11.63;8.77;;;4.80;99.90;;;;;;5031388;28;20632;-75
2024/03/24 04:49:07;;;;;;;10.10;7.67;;;4.70;99.90;;;;;;5031706;28;20179;-74
2024/03/24 04:51:33;;;;;;;11.73;8.53;;;4.70;99.90;;;;;;5029889;28;20203;-75
2024/03/24 04:53:59;;;;;;;8.80;7.80;;;4.60;99.90;;;;;;5031637;28;20178;-76
2024/03/24 04:56:24;;;;;;;9.97;8.40;;;4.60;99.90;;;;;;5031283;28;20211;-76
2024/03/24 04:58:50;;;;;;;9.20;8.17;;;4.60;99.90;;;;;;5032387;28;20187;-77
2024/03/24 05:01:16;;;;;;;10.90;8.13;;;4.70;99.90;;;;;;5030758;28;20199;-76
2024/03/24 05:03:42;;;;;;;16.33;10.70;;;4.70;99.90;;;;;;5030937;28;20203;-76
2024/03/24 05:06:08;;;;;;;12.80;9.97;;;4.70;99.90;;;;;;5030311;28;20758;-77
2024/03/24 05:08:36;;;;;;;13.87;9.90;;;4.80;99.90;;;;;;5046512;28;20201;-75
2024/03/24 05:11:02;;;;;;;15.07;10.97;;;4.80;99.90;;;;;;5031241;28;20635;-76
2024/03/24 05:13:28;;;;;;;11.47;9.43;;;4.80;99.90;;;;;;5030922;28;20206;-75
2024/03/24 05:15:54;;;;;;;13.43;9.10;;;4.80;99.90;;;;;;5031267;28;20175;-75
2024/03/24 05:18:20;;;;;;;14.20;9.33;;;4.80;99.90;;;;;;5030620;28;20180;-73
2024/03/24 05:20:47;;;;;;;13.17;8.83;;;4.80;99.90;;;;;;5031347;28;20195;-75
2024/03/24 05:23:18;;;;;;;12.27;9.27;;;4.80;99.90;;;;;;5031312;28;20198;-76
2024/03/24 05:25:53;;;;;;;17.13;9.23;;;4.80;99.90;;;;;;5031360;28;20171;-76
2024/03/24 05:28:19;;;;;;;10.57;9.57;;;4.90;99.90;;;;;;5031199;28;20217;-75
2024/03/24 05:30:45;;;;;;;11.23;9.43;;;4.90;99.90;;;;;;5031118;28;20199;-76
2024/03/24 05:33:11;;;;;;;14.63;8.07;;;5.00;99.90;;;;;;5030988;28;20233;-75
2024/03/24 05:35:37;;;;;;;14.60;9.50;;;4.90;99.90;;;;;;5030650;28;20183;-77
2024/03/24 05:38:02;;;;;;;15.90;10.03;;;4.90;99.90;;;;;;5031285;28;20172;-76
2024/03/24 05:40:28;;;;;;;11.17;8.67;;;5.00;99.90;;;;;;5030988;28;20210;-76
2024/03/24 05:42:53;;;;;;;18.67;8.80;;;5.00;99.90;;;;;;5031078;28;20202;-77
2024/03/24 05:45:20;;;;;;;11.47;9.80;;;5.00;99.90;;;;;;5033554;28;20182;-75
2024/03/24 05:47:45;;;;;;;16.17;9.70;;;5.00;99.90;;;;;;5034968;28;20229;-76
2024/03/24 05:50:11;;;;;;;13.23;9.23;;;5.10;99.90;;;;;;5034722;28;20574;-76
2024/03/24 05:52:37;;;;;;;13.80;10.00;;;5.10;99.90;;;;;;5034325;28;20214;-76
2024/03/24 05:55:07;;;;;;;14.73;9.83;;;5.10;99.90;;;;;;5034618;28;20683;-76
2024/03/24 05:57:33;;;;;;;14.23;9.10;;;5.20;99.90;;;;;;5034551;28;20203;-77
2024/03/24 05:59:59;;;;;;;14.57;9.37;;;5.30;99.90;;;;;;5034982;28;20176;-76
2024/03/24 06:02:27;;;;;;;17.53;10.70;;;5.20;99.90;;;;;;5034172;28;20195;-75
2024/03/24 06:04:55;;;;;;;12.03;10.50;;;5.20;99.90;;;;;;5034085;28;20207;-75
2024/03/24 06:07:22;;;;;;;15.23;9.70;;;5.30;99.90;;;;;;5033461;28;20175;-75
2024/03/24 06:09:48;;;;;;;15.10;8.17;;;5.20;99.90;;;;;;5033975;28;20175;-76
2024/03/24 06:12:14;;;;;;;12.80;9.67;;;5.30;99.90;;;;;;5033629;28;20620;-76
2024/03/24 06:14:39;;;;;;;12.20;9.27;;;5.30;99.90;;;;;;5026447;28;20180;-74
2024/03/24 06:17:06;;;;;;;18.67;9.73;;;5.30;99.90;;;;;;5033569;28;20191;-75
2024/03/24 06:19:33;;;;;;;12.77;9.43;;;5.30;99.90;;;;;;5033410;28;20207;-75
2024/03/24 06:21:58;;;;;;;16.77;9.80;;;5.30;99.90;;;;;;5033719;28;20286;-76
2024/03/24 06:24:24;;;;;;;14.60;9.30;;;5.40;99.90;;;;;;5033034;28;20279;-74
2024/03/24 06:26:50;;;;;;;10.13;9.03;;;5.40;99.90;;;;;;5033327;28;20183;-75
2024/03/24 06:29:16;;;;;;;14.97;10.47;;;5.40;99.90;;;;;;5033848;28;20195;-76
2024/03/24 06:31:41;;;;;;;13.67;8.63;;;5.40;99.90;;;;;;5033767;28;20329;-76
2024/03/24 06:34:07;;;;;;;20.27;11.03;;;5.50;99.90;;;;;;5033436;28;20221;-76
2024/03/24 06:36:37;;;;;;;13.57;9.87;;;5.50;99.90;;;;;;5033064;28;20182;-74
2024/03/24 06:39:03;;;;;;;14.73;9.17;;;5.60;99.90;;;;;;5033082;28;20194;-74
2024/03/24 06:41:29;;;;;;;14.50;8.60;;;5.70;99.90;;;;;;5033298;28;20254;-76
2024/03/24 06:43:55;;;;;;;18.57;8.93;;;5.70;99.90;;;;;;5028041;28;20207;-76
2024/03/24 06:46:21;;;;;;;16.93;9.10;;;5.80;99.90;;;;;;5030037;28;20187;-76
2024/03/24 06:48:47;;;;;;;9.90;8.17;;;5.80;99.90;;;;;;5032892;28;20190;-76
2024/03/24 06:51:13;;;;;;;17.87;9.07;;;5.90;99.90;;;;;;5033343;28;20199;-77
2024/03/24 06:53:38;;;;;;;14.97;8.60;;;5.90;99.90;;;;;;5033059;28;20188;-75
2024/03/24 06:56:04;;;;;;;16.03;8.63;;;5.90;99.90;;;;;;5031864;28;20558;-76
2024/03/24 06:58:30;;;;;;;17.20;8.90;;;6.00;99.90;;;;;;5032259;28;20649;-75
2024/03/24 07:00:56;;;;;;;11.27;7.90;;;6.00;99.90;;;;;;5032952;28;20195;-76
2024/03/24 07:03:22;;;;;;;11.20;7.70;;;6.00;99.90;;;;;;5033012;28;20218;-75
2024/03/24 07:05:48;;;;;;;12.23;7.73;;;6.00;99.90;;;;;;5033209;28;20175;-75
2024/03/24 07:08:14;;;;;;;10.97;6.90;;;6.00;99.90;;;;;;5032748;28;20187;-77
2024/03/24 07:10:39;;;;;;;11.20;7.70;;;6.10;99.90;;;;;;5032386;28;20262;-74
2024/03/24 07:13:05;;;;;;;11.27;7.57;;;6.10;99.90;;;;;;5033115;28;20561;-74
2024/03/24 07:15:33;;;;;;;10.73;7.10;;;6.10;99.90;;;;;;5031250;28;20191;-73
2024/03/24 07:17:58;;;;;;;14.40;6.57;;;6.10;99.90;;;;;;5033137;28;20210;-76
2024/03/24 07:20:24;;;;;;;10.63;6.60;;;6.10;99.90;;;;;;5033328;28;20222;-77
2024/03/24 07:22:50;;;;;;;15.20;7.67;;;6.20;99.90;;;;;;5032501;28;20179;-76
2024/03/24 07:25:16;;;;;;;9.97;7.27;;;6.20;99.90;;;;;;5032934;28;20585;-76
2024/03/24 07:27:42;;;;;;;13.40;7.67;;;6.00;99.90;;;;;;5033632;28;20652;-77
2024/03/24 07:30:08;;;;;;;7.30;6.60;;;5.90;99.90;;;;;;5033363;28;20191;-78
2024/03/24 07:32:35;;;;;;;8.23;6.90;;;5.60;99.90;;;;;;5032905;28;20261;-78
2024/03/24 07:35:01;;;;;;;7.73;6.40;;;5.40;99.90;;;;;;5029766;28;20194;-78
2024/03/24 07:37:27;;;;;;;10.27;6.27;;;5.40;99.90;;;;;;5025530;28;20665;-76
2024/03/24 07:39:53;;;;;;;8.33;7.10;;;5.40;99.90;;;;;;5033330;28;20183;-77
2024/03/24 07:42:19;;;;;;;8.90;6.20;;;5.50;99.90;;;;;;5033783;28;20305;-76
2024/03/24 07:44:45;;;;;;;8.27;6.57;;;5.50;99.90;;;;;;5032340;28;20306;-77
2024/03/24 07:47:10;;;;;;;6.70;6.07;;;5.60;99.90;;;;;;5034420;28;20532;-76
2024/03/24 07:49:36;;;;;;;8.40;7.37;;;5.60;99.90;;;;;;5033335;28;20176;-76
2024/03/24 07:52:02;;;;;;;9.73;6.73;;;5.70;99.90;;;;;;5034130;28;20605;-76
2024/03/24 07:54:28;;;;;;;8.73;6.40;;;5.70;99.90;;;;;;5033101;28;20196;-77
2024/03/24 07:56:53;;;;;;;6.83;6.33;;;5.60;99.90;;;;;;5033037;28;20187;-75
2024/03/24 07:59:19;;;;;;;11.50;6.10;;;5.60;99.90;;;;;;5032086;28;20189;-77
2024/03/24 08:01:45;;;;;;;7.00;6.40;;;5.60;99.90;;;;;;5033419;28;20680;-76
2024/03/24 08:04:11;;;;;;;8.77;6.47;;;5.70;99.90;;;;;;5032347;28;20218;-76
2024/03/24 08:06:36;;;;;;;7.53;6.70;;;5.60;99.90;;;;;;5032661;28;20210;-74
2024/03/24 08:09:02;;;;;;;8.77;5.67;;;5.70;99.90;;;;;;5033871;28;20168;-76
2024/03/24 08:11:28;;;;;;;8.57;6.10;;;5.80;99.90;;;;;;5033444;28;20211;-76
2024/03/24 08:13:54;;;;;;;8.17;6.17;;;5.80;99.90;;;;;;5035090;28;20182;-74
2024/03/24 08:16:20;;;;;;;6.80;6.30;;;5.80;99.90;;;;;;5034373;28;20194;-76
2024/03/24 08:18:48;;;;;;;6.40;5.80;;;5.80;99.90;;;;;;5038192;28;20690;-77
2024/03/24 08:21:16;;;;;;;7.30;6.60;;;5.90;99.90;;;;;;5038776;28;20200;-76
2024/03/24 08:23:42;;;;;;;8.50;6.10;;;6.00;99.90;;;;;;5024846;28;20195;-74
2024/03/24 08:26:09;;;;;;;12.87;6.10;;;5.90;99.90;;;;;;5035065;28;20179;-77
2024/03/24 08:28:34;;;;;;;8.30;6.30;;;5.90;99.90;;;;;;5033437;28;20190;-75
2024/03/24 08:31:00;;;;;;;6.57;5.50;;;5.90;99.90;;;;;;5030267;28;20200;-75
2024/03/24 08:33:29;;;;;;;6.97;5.60;;;6.00;99.90;;;;;;5031324;28;20183;-74
2024/03/24 08:35:55;;;;;;;8.47;5.90;;;6.10;99.90;;;;;;5029557;28;20179;-76
2024/03/24 08:38:20;;;;;;;8.63;6.53;;;6.20;99.90;;;;;;5030453;28;20239;-75
2024/03/24 08:40:46;;;;;;;7.43;6.73;;;6.40;99.90;;;;;;5029137;28;20638;-74
2024/03/24 08:43:11;;;;;;;7.53;6.87;;;6.60;99.90;;;;;;5030786;28;20199;-75
2024/03/24 08:45:37;;;;;;;8.37;5.73;;;6.80;99.90;;;;;;5029870;28;20183;-76
2024/03/24 08:48:03;;;;;;;5.77;5.23;;;7.10;99.90;;;;;;5031292;28;20179;-75
2024/03/24 08:50:29;;;;;;;9.47;5.27;;;7.70;99.90;;;;;;5022725;28;20663;-76
2024/03/24 08:52:55;;;;;;;5.50;5.00;;;8.30;99.90;;;;;;5029520;28;20183;-75
2024/03/24 08:55:21;;;;;;;4.80;4.17;;;8.70;99.90;;;;;;5030707;28;20683;-75
2024/03/24 08:57:46;;;;;;;4.67;4.20;;;9.00;99.90;;;;;;5022862;28;20186;-77
2024/03/24 09:00:12;;;;;;;5.73;4.47;;;9.20;99.90;;;;;;5031149;28;20602;-76
2024/03/24 09:02:38;;;;;;;6.80;4.40;;;9.10;99.90;;;;;;5028805;28;20262;-75
2024/03/24 09:05:05;;;;;;;4.53;4.07;;;9.20;99.90;;;;;;5025748;28;20259;-75
2024/03/24 09:07:31;;;;;;;6.17;5.00;;;9.40;99.90;;;;;;5027998;28;20180;-77
2024/03/24 09:09:56;;;;;;;5.90;4.63;;;9.50;99.90;;;;;;5030613;28;20663;-75
2024/03/24 09:12:22;;;;;;;5.67;4.23;;;9.70;99.90;;;;;;5030607;28;20269;-75
2024/03/24 09:14:47;;;;;;;7.10;4.60;;;9.60;99.90;;;;;;5030429;28;20175;-77
2024/03/24 09:17:13;;;;;;;7.20;4.90;;;9.70;99.90;;;;;;5030474;28;20222;-74
2024/03/24 09:19:39;;;;;;;7.87;4.37;;;9.70;99.90;;;;;;5033402;28;20175;-76
2024/03/24 09:22:08;;;;;;;6.23;4.77;;;9.70;99.90;;;;;;5034774;28;20695;-73
2024/03/24 09:24:33;;;;;;;10.70;5.27;;;9.70;99.90;;;;;;5034397;28;20625;-75
2024/03/24 09:27:00;;;;;;;5.47;4.93;;;9.80;99.90;;;;;;5033918;28;20180;-76
2024/03/24 09:29:26;;;;;;;5.93;4.70;;;9.70;99.90;;;;;;5033116;28;20549;-73
2024/03/24 09:31:52;;;;;;;7.47;4.77;;;9.70;99.90;;;;;;5034251;28;20194;-72
2024/03/24 09:34:24;;;;;;;14.13;5.93;;;9.60;99.90;;;;;;5034407;28;20183;-75
2024/03/24 09:36:49;;;;;;;8.40;5.03;;;9.50;99.90;;;;;;5034063;28;20660;-76
2024/03/24 09:39:15;;;;;;;5.63;4.87;;;9.40;99.90;;;;;;5034628;28;20184;-76
2024/03/24 09:41:45;;;;;;;11.67;7.17;;;9.50;99.90;;;;;;5034219;28;20199;-75
2024/03/24 09:44:12;;;;;;;5.90;4.97;;;9.50;99.90;;;;;;5033467;28;20214;-74
2024/03/24 09:46:47;;;;;;;10.17;5.40;;;9.30;99.90;;;;;;5032795;28;20175;-74
2024/03/24 09:49:14;;;;;;;8.43;5.80;;;9.10;99.90;;;;;;5033693;28;20183;-75
2024/03/24 09:51:41;;;;;;;9.10;5.87;;;9.10;99.90;;;;;;5034226;28;20274;-75
2024/03/24 09:54:13;;;;;;;9.97;6.23;;;9.30;99.90;;;;;;5034507;28;20188;-74
2024/03/24 09:56:40;;;;;;;7.63;5.10;;;9.90;99.90;;;;;;5034374;28;20206;-74
2024/03/24 09:59:06;;;;;;;8.93;4.93;;;10.30;99.90;;;;;;5035165;28;20764;-75
2024/03/24 10:01:33;;;;;;;8.80;6.00;;;10.40;99.90;;;;;;5033262;28;20234;-74
2024/03/24 10:04:00;;;;;;;7.30;4.90;;;10.50;99.90;;;;;;5026628;28;20195;-76
2024/03/24 10:06:26;;;;;;;11.13;6.07;;;10.40;99.90;;;;;;5033852;28;20251;-75
2024/03/24 10:08:52;;;;;;;9.77;4.93;;;10.30;99.90;;;;;;5033813;28;20670;-74
2024/03/24 10:11:25;;;;;;;10.27;6.13;;;10.00;99.90;;;;;;5033694;28;20215;-74
2024/03/24 10:13:51;;;;;;;10.37;5.20;;;10.20;99.90;;;;;;5033548;28;20187;-73
2024/03/24 10:16:16;;;;;;;10.23;4.97;;;10.60;99.90;;;;;;5033571;28;20183;-76
2024/03/24 10:18:45;;;;;;;8.23;5.43;;;10.90;99.90;;;;;;5033086;28;20207;-75
2024/03/24 10:21:11;;;;;;;11.87;5.70;;;11.10;99.90;;;;;;5033784;28;20207;-74
2024/03/24 10:23:38;;;;;;;7.90;4.80;;;11.20;99.90;;;;;;5033637;28;20195;-74
2024/03/24 10:26:04;;;;;;;8.30;5.47;;;11.00;99.90;;;;;;5033181;28;20179;-74
2024/03/24 10:28:30;;;;;;;10.20;6.03;;;10.70;99.90;;;;;;5031932;28;20904;-75
2024/03/24 10:31:08;;;;;;;7.50;5.33;;;10.60;99.90;;;;;;5032190;28;20229;-74
2024/03/24 10:33:38;;;;;;;9.30;6.03;;;10.60;99.90;;;;;;5033323;28;20258;-73
2024/03/24 10:36:05;;;;;;;6.83;5.57;;;10.90;99.90;;;;;;5033171;28;20657;-70
2024/03/24 10:38:31;;;;;;;7.93;4.87;;;10.90;99.90;;;;;;5031983;28;20554;-74
2024/03/24 10:40:58;;;;;;;7.10;4.57;;;11.00;99.90;;;;;;5033223;28;20202;-72
2024/03/24 10:43:25;;;;;;;9.83;5.30;;;11.20;99.90;;;;;;5033186;28;20196;-70
2024/03/24 10:45:56;;;;;;;6.87;5.00;;;11.50;99.90;;;;;;5031386;28;20188;-73
2024/03/24 10:48:30;;;;;;;7.83;4.73;;;11.70;99.90;;;;;;5033241;28;20202;-75
2024/03/24 10:50:57;;;;;;;6.80;4.50;;;11.90;99.90;;;;;;5031283;28;20188;-74
2024/03/24 10:53:28;;;;;;;7.80;4.50;;;12.20;99.90;;;;;;5033220;28;20175;-75
2024/03/24 10:55:58;;;;;;;7.40;4.30;;;12.20;99.90;;;;;;5032959;28;20179;-73
2024/03/24 10:58:24;;;;;;;7.80;4.50;;;12.30;99.90;;;;;;5032786;28;20664;-74
2024/03/24 11:00:50;;;;;;;7.03;4.77;;;12.20;99.90;;;;;;5031335;28;20213;-72
2024/03/24 11:03:17;;;;;;;6.90;4.20;;;11.90;99.90;;;;;;5032780;28;20522;-74
2024/03/24 11:05:47;;;;;;;7.93;4.40;;;11.80;99.90;;;;;;5032977;28;20187;-73
2024/03/24 11:08:15;;;;;;;11.43;4.23;;;11.80;99.90;;;;;;5032821;28;20663;-73
2024/03/24 11:11:01;;;;;;;5.20;3.90;;;11.90;99.90;;;;;;5030805;28;20215;-73
2024/03/24 11:13:30;;;;;;;10.90;4.50;;;11.70;99.90;;;;;;5032818;28;20187;-74
2024/03/24 11:15:58;;;;;;;5.77;4.17;;;11.50;99.90;;;;;;5032411;28;20582;-75
2024/03/24 11:18:26;;;;;;;8.00;5.10;;;11.40;99.90;;;;;;5032867;28;20183;-75
2024/03/24 11:20:52;;;;;;;5.77;4.30;;;11.30;99.90;;;;;;5032412;28;20202;-75
2024/03/24 11:23:34;;;;;;;7.20;3.93;;;11.20;99.90;;;;;;5032072;28;20642;-71
2024/03/24 11:26:03;;;;;;;9.50;4.13;;;10.80;99.90;;;;;;5031959;28;20226;-74
2024/03/24 11:28:48;;;;;;;8.47;4.63;;;10.00;99.90;;;;;;5032247;28;20178;-73
2024/03/24 11:31:14;;;;;;;7.10;4.20;;;9.40;99.90;;;;;;5032242;28;20688;-75
2024/03/24 11:33:39;;;;;;;8.57;5.00;;;9.00;99.90;;;;;;5031941;28;20202;-74
2024/03/24 11:36:20;;;;;;;5.80;5.23;;;8.60;99.90;;;;;;5031707;28;20187;-72
2024/03/24 11:38:46;;;;;;;11.10;5.03;;;8.20;99.90;;;;;;5032072;28;20179;-76
2024/03/24 11:41:16;;;;;;;6.67;5.20;;;8.00;99.90;;;;;;5031951;28;20282;-75
2024/03/24 11:43:42;;;;;;;10.13;4.83;;;7.90;99.90;;;;;;5031607;28;20688;-73
2024/03/24 11:46:11;;;;;;;6.03;5.20;;;8.00;99.90;;;;;;5031726;28;20210;-74
2024/03/24 11:48:38;;;;;;;9.80;5.20;;;8.00;99.90;;;;;;5031663;28;20171;-75
2024/03/24 11:51:06;;;;;;;12.43;5.90;;;8.20;99.90;;;;;;5024396;28;20191;-76
2024/03/24 11:53:31;;;;;;;9.80;5.17;;;8.40;99.90;;;;;;5031787;28;20769;-74
2024/03/24 11:56:01;;;;;;;9.37;5.13;;;8.50;99.90;;;;;;5031742;28;20262;-75
2024/03/24 11:58:27;;;;;;;9.03;4.97;;;8.50;99.90;;;;;;5031802;28;20190;-73
2024/03/24 12:00:53;;;;;;;9.83;4.83;;;8.60;99.90;;;;;;5031540;28;20219;-74
2024/03/24 12:03:19;;;;;;;7.77;5.90;;;8.70;99.90;;;;;;5031778;28;20249;-74
2024/03/24 12:05:45;;;;;;;13.40;5.63;;;8.70;99.90;;;;;;5030637;28;20167;-73
2024/03/24 12:08:11;;;;;;;10.30;5.20;;;8.70;99.90;;;;;;5031550;28;20190;-74
2024/03/24 12:10:38;;;;;;;7.33;5.73;;;8.70;99.90;;;;;;5031179;28;20229;-73
2024/03/24 12:13:04;;;;;;;8.47;4.77;;;8.70;99.90;;;;;;5031466;28;20187;-73
2024/03/24 12:15:30;;;;;;;9.43;5.67;;;8.60;99.90;;;;;;5031124;28;20659;-74
2024/03/24 12:18:09;;;;;;;9.00;5.03;;;8.70;99.90;;;;;;5031163;28;20701;-74
2024/03/24 12:20:36;;;;;;;10.27;6.83;;;9.00;99.90;;;;;;5031436;28;20205;-74
2024/03/24 12:23:05;;;;;;;9.10;4.73;;;9.20;99.90;;;;;;5031054;28;20187;-73
2024/03/24 12:25:32;;;;;;;8.03;4.90;;;9.20;99.90;;;;;;5030936;28;20274;-76
2024/03/24 12:27:58;;;;;;;9.27;5.43;;;9.20;99.90;;;;;;5030938;28;20172;-73
2024/03/24 12:30:27;;;;;;;9.70;4.60;;;9.10;99.90;;;;;;5031133;28;20187;-73
2024/03/24 12:32:56;;;;;;;5.53;4.93;;;9.20;99.90;;;;;;5031291;28;20454;-72
2024/03/24 12:35:22;;;;;;;7.37;4.50;;;9.20;99.90;;;;;;5030843;28;20190;-72
2024/03/24 12:37:49;;;;;;;10.80;4.73;;;9.30;99.90;;;;;;5030894;28;20594;-74
2024/03/24 12:40:19;;;;;;;7.03;5.07;;;9.40;99.90;;;;;;5030925;28;20198;-72
2024/03/24 12:42:49;;;;;;;9.03;4.87;;;9.40;99.90;;;;;;5030508;28;20615;-73
2024/03/24 12:45:18;;;;;;;8.20;4.77;;;9.50;99.90;;;;;;5031019;28;20210;-73
2024/03/24 12:47:44;;;;;;;9.77;4.83;;;9.50;99.90;;;;;;5030873;28;20262;-75
2024/03/24 12:50:30;;;;;;;5.20;4.47;;;9.40;99.90;;;;;;5029583;28;20591;-73